sensor_id;sensor_type;location;lat;lon;timestamp;pressure;altitude;pressure_sealevel;temperature;humidity
79006;BME280;69202;45.498;-73.582;2024-01-15T00:02:11;100057.78;;;18.38;30.57
79006;BME280;69202;45.498;-73.582;2024-01-15T00:04:38;100042.13;;;18.33;30.46
79006;BME280;69202;45.498;-73.582;2024-01-15T00:07:05;100047.06;;;18.31;30.61
79006;BME280;69202;45.498;-73.582;2024-01-15T00:09:31;100065.66;;;18.29;30.53
79006;BME280;69202;45.498;-73.582;2024-01-15T00:11:57;100067.03;;;18.27;30.55
79006;BME280;69202;45.498;-73.582;2024-01-15T00:14:23;100065.34;;;18.21;30.71
79006;BME280;69202;45.498;-73.582;2024-01-15T00:16:49;100075.47;;;18.20;30.49
79006;BME280;69202;45.498;-73.582;2024-01-15T00:19:23;100059.25;;;18.08;30.69
79006;BME280;69202;45.498;-73.582;2024-01-15T00:21:50;100063.09;;;18.12;30.66
79006;BME280;69202;45.498;-73.582;2024-01-15T00:24:16;100067.75;;;18.12;30.66
79006;BME280;69202;45.498;-73.582;2024-01-15T00:26:42;100062.53;;;18.05;30.77
79006;BME280;69202;45.498;-73.582;2024-01-15T00:29:08;100077.31;;;18.04;30.83
79006;BME280;69202;45.498;-73.582;2024-01-15T00:31:35;100091.00;;;18.04;30.73
79006;BME280;69202;45.498;-73.582;2024-01-15T00:34:01;100098.59;;;18.02;30.79
79006;BME280;69202;45.498;-73.582;2024-01-15T00:36:27;100109.25;;;17.99;30.84
79006;BME280;69202;45.498;-73.582;2024-01-15T00:38:53;100117.19;;;17.95;30.76
79006;BME280;69202;45.498;-73.582;2024-01-15T00:41:19;100125.59;;;17.88;31.06
79006;BME280;69202;45.498;-73.582;2024-01-15T00:43:46;100133.88;;;17.94;30.70
79006;BME280;69202;45.498;-73.582;2024-01-15T00:46:14;100133.88;;;17.94;30.74
79006;BME280;69202;45.498;-73.582;2024-01-15T00:48:40;100142.00;;;17.88;30.78
79006;BME280;69202;45.498;-73.582;2024-01-15T00:51:07;100149.13;;;17.89;30.88
79006;BME280;69202;45.498;-73.582;2024-01-15T00:53:33;100148.88;;;17.91;31.03
79006;BME280;69202;45.498;-73.582;2024-01-15T00:55:59;100147.47;;;17.88;31.14
79006;BME280;69202;45.498;-73.582;2024-01-15T00:58:26;100168.00;;;17.91;30.99
79006;BME280;69202;45.498;-73.582;2024-01-15T01:00:52;100170.50;;;17.93;30.99
79006;BME280;69202;45.498;-73.582;2024-01-15T01:03:18;100171.34;;;17.93;30.88
79006;BME280;69202;45.498;-73.582;2024-01-15T01:05:44;100173.81;;;17.95;31.05
79006;BME280;69202;45.498;-73.582;2024-01-15T01:08:10;100195.16;;;17.98;30.92
79006;BME280;69202;45.498;-73.582;2024-01-15T01:10:37;100200.38;;;17.99;30.89
79006;BME280;69202;45.498;-73.582;2024-01-15T01:13:03;100202.56;;;18.02;30.83
79006;BME280;69202;45.498;-73.582;2024-01-15T01:15:29;100213.84;;;18.06;30.76
79006;BME280;69202;45.498;-73.582;2024-01-15T01:17:55;100223.44;;;18.08;30.79
79006;BME280;69202;45.498;-73.582;2024-01-15T01:20:21;100217.69;;;18.10;30.85
79006;BME280;69202;45.498;-73.582;2024-01-15T01:22:46;100229.50;;;18.15;30.57
79006;BME280;69202;45.498;-73.582;2024-01-15T01:25:12;100248.97;;;18.19;30.55
79006;BME280;69202;45.498;-73.582;2024-01-15T01:27:38;100241.88;;;18.23;30.54
79006;BME280;69202;45.498;-73.582;2024-01-15T01:30:06;100234.78;;;18.27;30.53
79006;BME280;69202;45.498;-73.582;2024-01-15T01:32:32;100231.53;;;18.30;30.41
79006;BME280;69202;45.498;-73.582;2024-01-15T01:34:58;100242.75;;;18.34;30.27
79006;BME280;69202;45.498;-73.582;2024-01-15T01:37:24;100246.38;;;18.39;30.22
79006;BME280;69202;45.498;-73.582;2024-01-15T01:39:50;100251.84;;;18.39;30.33
79006;BME280;69202;45.498;-73.582;2024-01-15T01:42:16;100257.94;;;18.46;29.92
79006;BME280;69202;45.498;-73.582;2024-01-15T01:44:42;100261.22;;;18.49;30.02
79006;BME280;69202;45.498;-73.582;2024-01-15T01:47:08;100273.28;;;18.53;30.04
79006;BME280;69202;45.498;-73.582;2024-01-15T01:49:34;100269.97;;;18.45;29.99
79006;BME280;69202;45.498;-73.582;2024-01-15T01:52:05;100302.13;;;18.60;29.87
79006;BME280;69202;45.498;-73.582;2024-01-15T01:54:34;100299.66;;;18.64;29.83
79006;BME280;69202;45.498;-73.582;2024-01-15T01:57:02;100307.41;;;18.67;29.84
79006;BME280;69202;45.498;-73.582;2024-01-15T01:59:30;100313.19;;;18.70;29.75
79006;BME280;69202;45.498;-73.582;2024-01-15T02:01:57;100314.28;;;18.74;29.77
79006;BME280;69202;45.498;-73.582;2024-01-15T02:04:25;100338.44;;;18.78;29.64
79006;BME280;69202;45.498;-73.582;2024-01-15T02:06:51;100329.63;;;18.75;29.59
79006;BME280;69202;45.498;-73.582;2024-01-15T02:09:20;100348.06;;;18.85;29.54
79006;BME280;69202;45.498;-73.582;2024-01-15T02:11:47;100342.06;;;18.88;29.47
79006;BME280;69202;45.498;-73.582;2024-01-15T02:14:13;100350.03;;;18.90;29.34
79006;BME280;69202;45.498;-73.582;2024-01-15T02:16:39;100342.34;;;18.92;29.26
79006;BME280;69202;45.498;-73.582;2024-01-15T02:19:05;100350.31;;;18.93;29.24
79006;BME280;69202;45.498;-73.582;2024-01-15T02:21:32;100352.50;;;18.91;28.89
79006;BME280;69202;45.498;-73.582;2024-01-15T02:23:58;100370.88;;;18.96;28.89
79006;BME280;69202;45.498;-73.582;2024-01-15T02:26:24;100373.38;;;18.97;28.96
79006;BME280;69202;45.498;-73.582;2024-01-15T02:28:51;100357.16;;;18.96;29.06
79006;BME280;69202;45.498;-73.582;2024-01-15T02:31:17;100342.41;;;18.97;28.80
79006;BME280;69202;45.498;-73.582;2024-01-15T02:33:43;100377.16;;;18.96;28.99
79006;BME280;69202;45.498;-73.582;2024-01-15T02:36:11;100390.03;;;18.96;28.92
79006;BME280;69202;45.498;-73.582;2024-01-15T02:38:37;100388.13;;;18.96;28.71
79006;BME280;69202;45.498;-73.582;2024-01-15T02:41:03;100399.34;;;18.95;28.68
79006;BME280;69202;45.498;-73.582;2024-01-15T02:43:29;100398.53;;;18.94;28.59
79006;BME280;69202;45.498;-73.582;2024-01-15T02:45:55;100386.66;;;18.84;28.70
79006;BME280;69202;45.498;-73.582;2024-01-15T02:48:21;100394.41;;;18.92;28.52
79006;BME280;69202;45.498;-73.582;2024-01-15T02:50:47;100401.25;;;18.89;28.63
79006;BME280;69202;45.498;-73.582;2024-01-15T02:53:13;100401.19;;;18.84;28.67
79006;BME280;69202;45.498;-73.582;2024-01-15T02:55:39;100404.75;;;18.85;28.46
79006;BME280;69202;45.498;-73.582;2024-01-15T02:58:05;100417.91;;;18.83;28.67
79006;BME280;69202;45.498;-73.582;2024-01-15T03:00:31;100418.44;;;18.80;28.36
79006;BME280;69202;45.498;-73.582;2024-01-15T03:02:57;100430.75;;;18.77;28.81
79006;BME280;69202;45.498;-73.582;2024-01-15T03:05:23;100437.53;;;18.74;28.43
79006;BME280;69202;45.498;-73.582;2024-01-15T03:07:48;100416.16;;;18.44;28.46
79006;BME280;69202;45.498;-73.582;2024-01-15T03:10:14;100449.22;;;18.65;28.48
79006;BME280;69202;45.498;-73.582;2024-01-15T03:12:40;100443.63;;;18.55;28.68
79006;BME280;69202;45.498;-73.582;2024-01-15T03:15:06;100465.59;;;18.60;28.47
79006;BME280;69202;45.498;-73.582;2024-01-15T03:17:32;100479.53;;;18.58;28.61
79006;BME280;69202;45.498;-73.582;2024-01-15T03:19:58;100484.47;;;18.56;28.56
79006;BME280;69202;45.498;-73.582;2024-01-15T03:22:24;100489.34;;;18.54;28.50
79006;BME280;69202;45.498;-73.582;2024-01-15T03:24:50;100483.56;;;18.51;28.73
79006;BME280;69202;45.498;-73.582;2024-01-15T03:27:16;100489.56;;;18.48;28.84
79006;BME280;69202;45.498;-73.582;2024-01-15T03:29:42;100497.72;;;18.42;28.72
79006;BME280;69202;45.498;-73.582;2024-01-15T03:32:08;100500.97;;;18.39;28.80
79006;BME280;69202;45.498;-73.582;2024-01-15T03:34:34;100502.31;;;18.37;28.74
79006;BME280;69202;45.498;-73.582;2024-01-15T03:37:00;100509.63;;;18.31;28.90
79006;BME280;69202;45.498;-73.582;2024-01-15T03:39:26;100511.78;;;18.29;28.82
79006;BME280;69202;45.498;-73.582;2024-01-15T03:41:51;100527.09;;;18.25;28.97
79006;BME280;69202;45.498;-73.582;2024-01-15T03:44:17;100544.00;;;18.22;28.92
79006;BME280;69202;45.498;-73.582;2024-01-15T03:46:43;100546.69;;;18.17;28.92
79006;BME280;69202;45.498;-73.582;2024-01-15T03:49:09;100557.06;;;18.15;29.01
79006;BME280;69202;45.498;-73.582;2024-01-15T03:51:35;100549.59;;;18.10;29.00
79006;BME280;69202;45.498;-73.582;2024-01-15T03:54:01;100543.81;;;18.07;29.00
79006;BME280;69202;45.498;-73.582;2024-01-15T03:56:27;100545.16;;;18.04;29.08
79006;BME280;69202;45.498;-73.582;2024-01-15T03:58:53;100557.41;;;18.02;29.20
79006;BME280;69202;45.498;-73.582;2024-01-15T04:01:19;100566.13;;;17.99;29.29
79006;BME280;69202;45.498;-73.582;2024-01-15T04:03:45;100574.03;;;17.95;29.12
79006;BME280;69202;45.498;-73.582;2024-01-15T04:06:10;100580.81;;;17.93;29.20
79006;BME280;69202;45.498;-73.582;2024-01-15T04:08:38;100585.69;;;17.91;29.34
79006;BME280;69202;45.498;-73.582;2024-01-15T04:11:04;100594.16;;;17.89;29.26
79006;BME280;69202;45.498;-73.582;2024-01-15T04:13:32;100591.69;;;17.87;29.48
79006;BME280;69202;45.498;-73.582;2024-01-15T04:16:00;100610.00;;;17.87;29.35
79006;BME280;69202;45.498;-73.582;2024-01-15T04:18:26;100590.84;;;17.87;29.41
79006;BME280;69202;45.498;-73.582;2024-01-15T04:20:52;100604.53;;;17.87;29.53
79006;BME280;69202;45.498;-73.582;2024-01-15T04:23:18;100605.34;;;17.87;29.40
79006;BME280;69202;45.498;-73.582;2024-01-15T04:25:44;100612.47;;;17.88;29.51
79006;BME280;69202;45.498;-73.582;2024-01-15T04:28:12;100618.53;;;17.91;29.37
79006;BME280;69202;45.498;-73.582;2024-01-15T04:30:38;100623.75;;;17.92;29.44
79006;BME280;69202;45.498;-73.582;2024-01-15T04:33:04;100624.59;;;17.93;29.45
79006;BME280;69202;45.498;-73.582;2024-01-15T04:35:34;100645.16;;;17.95;29.41
79006;BME280;69202;45.498;-73.582;2024-01-15T04:38:00;100643.81;;;17.98;29.30
79006;BME280;69202;45.498;-73.582;2024-01-15T04:40:27;100641.66;;;18.00;29.29
79006;BME280;69202;45.498;-73.582;2024-01-15T04:42:54;100638.41;;;18.03;29.41
79006;BME280;69202;45.498;-73.582;2024-01-15T04:45:20;100634.00;;;18.02;29.21
79006;BME280;69202;45.498;-73.582;2024-01-15T04:47:48;100630.53;;;18.06;28.95
79006;BME280;69202;45.498;-73.582;2024-01-15T04:50:15;100610.41;;;17.96;29.05
79006;BME280;69202;45.498;-73.582;2024-01-15T04:52:41;100617.94;;;18.05;29.17
79006;BME280;69202;45.498;-73.582;2024-01-15T04:55:07;100628.69;;;18.12;29.32
79006;BME280;69202;45.498;-73.582;2024-01-15T04:57:32;100636.41;;;18.15;29.05
79006;BME280;69202;45.498;-73.582;2024-01-15T04:59:58;100633.16;;;18.18;29.06
79006;BME280;69202;45.498;-73.582;2024-01-15T05:02:24;100633.47;;;18.22;28.81
79006;BME280;69202;45.498;-73.582;2024-01-15T05:04:51;100641.22;;;18.25;29.04
79006;BME280;69202;45.498;-73.582;2024-01-15T05:07:17;100648.91;;;18.28;28.95
79006;BME280;69202;45.498;-73.582;2024-01-15T05:09:42;100653.03;;;18.30;28.88
79006;BME280;69202;45.498;-73.582;2024-01-15T05:12:08;100665.41;;;18.33;28.85
79006;BME280;69202;45.498;-73.582;2024-01-15T05:14:34;100656.09;;;18.34;28.95
79006;BME280;69202;45.498;-73.582;2024-01-15T05:17:00;100674.53;;;18.38;28.73
79006;BME280;69202;45.498;-73.582;2024-01-15T05:19:26;100677.00;;;18.40;28.74
79006;BME280;69202;45.498;-73.582;2024-01-15T05:21:52;100684.97;;;18.41;28.67
79006;BME280;69202;45.498;-73.582;2024-01-15T05:24:18;100691.84;;;18.44;28.66
79006;BME280;69202;45.498;-73.582;2024-01-15T05:26:44;100695.44;;;18.44;28.49
79006;BME280;69202;45.498;-73.582;2024-01-15T05:29:10;100697.66;;;18.48;28.44
79006;BME280;69202;45.498;-73.582;2024-01-15T05:31:36;100698.47;;;18.48;28.37
79006;BME280;69202;45.498;-73.582;2024-01-15T05:34:02;100705.63;;;18.49;28.42
79006;BME280;69202;45.498;-73.582;2024-01-15T05:36:28;100696.31;;;18.50;28.54
79006;BME280;69202;45.498;-73.582;2024-01-15T05:38:53;100696.00;;;18.46;28.37
79006;BME280;69202;45.498;-73.582;2024-01-15T05:41:19;100702.63;;;18.51;28.57
79006;BME280;69202;45.498;-73.582;2024-01-15T05:43:45;100687.53;;;18.48;28.30
79006;BME280;69202;45.498;-73.582;2024-01-15T05:46:11;100693.84;;;18.49;28.46
79006;BME280;69202;45.498;-73.582;2024-01-15T05:48:37;100692.19;;;18.48;28.32
79006;BME280;69202;45.498;-73.582;2024-01-15T05:51:04;100696.81;;;18.47;28.32
79006;BME280;69202;45.498;-73.582;2024-01-15T05:53:30;100696.25;;;18.45;28.33
79006;BME280;69202;45.498;-73.582;2024-01-15T05:55:55;100707.44;;;18.43;28.33
79006;BME280;69202;45.498;-73.582;2024-01-15T05:58:22;100708.50;;;18.42;28.13
79006;BME280;69202;45.498;-73.582;2024-01-15T06:00:48;100712.59;;;18.40;28.30
79006;BME280;69202;45.498;-73.582;2024-01-15T06:03:15;100706.66;;;18.26;28.51
79006;BME280;69202;45.498;-73.582;2024-01-15T06:05:41;100712.19;;;18.31;28.23
79006;BME280;69202;45.498;-73.582;2024-01-15T06:08:07;100722.31;;;18.31;28.45
79006;BME280;69202;45.498;-73.582;2024-01-15T06:10:33;100718.44;;;18.27;28.38
79006;BME280;69202;45.498;-73.582;2024-01-15T06:12:59;100726.63;;;18.27;28.42
79006;BME280;69202;45.498;-73.582;2024-01-15T06:15:25;100734.28;;;18.25;28.38
79006;BME280;69202;45.498;-73.582;2024-01-15T06:17:51;100730.09;;;18.22;28.45
79006;BME280;69202;45.498;-73.582;2024-01-15T06:20:16;100740.47;;;18.20;28.62
79006;BME280;69202;45.498;-73.582;2024-01-15T06:22:42;100733.34;;;18.19;28.58
79006;BME280;69202;45.498;-73.582;2024-01-15T06:25:08;100744.28;;;18.19;28.68
79006;BME280;69202;45.498;-73.582;2024-01-15T06:27:34;100744.28;;;18.19;28.65
79006;BME280;69202;45.498;-73.582;2024-01-15T06:30:00;100740.47;;;18.20;28.65
79006;BME280;69202;45.498;-73.582;2024-01-15T06:32:27;100745.69;;;18.22;28.55
79006;BME280;69202;45.498;-73.582;2024-01-15T06:34:53;100736.59;;;18.16;28.49
79006;BME280;69202;45.498;-73.582;2024-01-15T06:37:19;100739.66;;;18.20;28.65
79006;BME280;69202;45.498;-73.582;2024-01-15T06:39:45;100745.13;;;18.20;28.33
79006;BME280;69202;45.498;-73.582;2024-01-15T06:42:11;100750.09;;;18.23;28.14
79006;BME280;69202;45.498;-73.582;2024-01-15T06:44:37;100773.69;;;18.24;28.72
79006;BME280;69202;45.498;-73.582;2024-01-15T06:47:05;100767.13;;;18.25;28.41
79006;BME280;69202;45.498;-73.582;2024-01-15T06:49:31;100768.78;;;18.26;28.38
79006;BME280;69202;45.498;-73.582;2024-01-15T06:51:57;100785.53;;;18.29;28.54
79006;BME280;69202;45.498;-73.582;2024-01-15T06:54:23;100784.19;;;18.32;28.34
79006;BME280;69202;45.498;-73.582;2024-01-15T06:56:49;100790.50;;;18.32;28.49
79006;BME280;69202;45.498;-73.582;2024-01-15T06:59:16;100800.97;;;18.35;28.35
79006;BME280;69202;45.498;-73.582;2024-01-15T07:01:41;100801.78;;;18.36;28.50
79006;BME280;69202;45.498;-73.582;2024-01-15T07:04:07;100807.59;;;18.39;28.31
79006;BME280;69202;45.498;-73.582;2024-01-15T07:06:33;100807.59;;;18.39;28.30
79006;BME280;69202;45.498;-73.582;2024-01-15T07:08:59;100788.41;;;18.39;27.95
79006;BME280;69202;45.498;-73.582;2024-01-15T07:11:25;100800.88;;;18.47;28.24
79006;BME280;69202;45.498;-73.582;2024-01-15T07:13:51;100797.06;;;18.48;28.26
79006;BME280;69202;45.498;-73.582;2024-01-15T07:16:17;100790.91;;;18.41;28.16
79006;BME280;69202;45.498;-73.582;2024-01-15T07:18:43;100812.47;;;18.54;28.00
79006;BME280;69202;45.498;-73.582;2024-01-15T07:21:09;100824.03;;;18.56;28.00
79006;BME280;69202;45.498;-73.582;2024-01-15T07:23:35;100810.91;;;18.58;27.68
79006;BME280;69202;45.498;-73.582;2024-01-15T07:26:01;100820.28;;;18.62;27.98
79006;BME280;69202;45.498;-73.582;2024-01-15T07:28:31;100813.91;;;18.57;28.01
79006;BME280;69202;45.498;-73.582;2024-01-15T07:30:57;100835.41;;;18.65;27.97
79006;BME280;69202;45.498;-73.582;2024-01-15T07:33:23;100849.44;;;18.68;27.90
79006;BME280;69202;45.498;-73.582;2024-01-15T07:35:49;100857.16;;;18.71;27.79
79006;BME280;69202;45.498;-73.582;2024-01-15T07:38:14;100854.41;;;18.71;27.75
79006;BME280;69202;45.498;-73.582;2024-01-15T07:40:40;100855.25;;;18.72;27.58
79006;BME280;69202;45.498;-73.582;2024-01-15T07:43:06;100846.13;;;18.66;27.74
79006;BME280;69202;45.498;-73.582;2024-01-15T07:45:34;100863.19;;;18.73;27.62
79006;BME280;69202;45.498;-73.582;2024-01-15T07:48:00;100870.34;;;18.74;27.63
79006;BME280;69202;45.498;-73.582;2024-01-15T07:50:26;100867.59;;;18.74;27.59
79006;BME280;69202;45.498;-73.582;2024-01-15T07:52:52;100866.19;;;18.72;27.68
79006;BME280;69202;45.498;-73.582;2024-01-15T07:55:18;100867.59;;;18.74;27.39
79006;BME280;69202;45.498;-73.582;2024-01-15T07:57:44;100872.25;;;18.74;27.17
79006;BME280;69202;45.498;-73.582;2024-01-15T08:00:10;100864.28;;;18.72;27.36
79006;BME280;69202;45.498;-73.582;2024-01-15T08:02:36;100879.06;;;18.71;27.36
79006;BME280;69202;45.498;-73.582;2024-01-15T08:05:02;100880.16;;;18.70;27.39
79006;BME280;69202;45.498;-73.582;2024-01-15T08:07:28;100886.13;;;18.67;27.35
79006;BME280;69202;45.498;-73.582;2024-01-15T08:09:54;100877.09;;;18.67;27.59
79006;BME280;69202;45.498;-73.582;2024-01-15T08:12:20;100879.13;;;18.60;27.70
79006;BME280;69202;45.498;-73.582;2024-01-15T08:14:46;100873.63;;;18.60;27.53
79006;BME280;69202;45.498;-73.582;2024-01-15T08:17:11;100888.16;;;18.60;27.38
79006;BME280;69202;45.498;-73.582;2024-01-15T08:19:37;100894.16;;;18.57;27.46
79006;BME280;69202;45.498;-73.582;2024-01-15T08:22:06;100892.63;;;18.50;27.21
79006;BME280;69202;45.498;-73.582;2024-01-15T08:24:32;100902.50;;;18.51;27.62
79006;BME280;69202;45.498;-73.582;2024-01-15T08:26:58;100894.63;;;18.37;27.38
79006;BME280;69202;45.498;-73.582;2024-01-15T08:29:24;100908.13;;;18.44;27.58
79006;BME280;69202;45.498;-73.582;2024-01-15T08:31:50;100909.72;;;18.40;27.62
79006;BME280;69202;45.498;-73.582;2024-01-15T08:34:16;100905.56;;;18.37;27.74
79006;BME280;69202;45.498;-73.582;2024-01-15T08:36:42;100911.28;;;18.36;27.75
79006;BME280;69202;45.498;-73.582;2024-01-15T08:39:08;100914.50;;;18.33;27.74
79006;BME280;69202;45.498;-73.582;2024-01-15T08:41:34;100917.50;;;18.31;27.80
79006;BME280;69202;45.498;-73.582;2024-01-15T08:44:01;100908.69;;;18.29;27.87
79006;BME280;69202;45.498;-73.582;2024-01-15T08:46:28;100906.22;;;18.28;27.87
79006;BME280;69202;45.498;-73.582;2024-01-15T08:48:55;100904.56;;;18.27;27.87
79006;BME280;69202;45.498;-73.582;2024-01-15T08:51:20;100900.06;;;18.21;27.95
79006;BME280;69202;45.498;-73.582;2024-01-15T08:53:46;100917.31;;;18.21;27.97
79006;BME280;69202;45.498;-73.582;2024-01-15T08:56:12;100916.84;;;18.24;27.91
79006;BME280;69202;45.498;-73.582;2024-01-15T08:58:39;100916.59;;;18.26;27.99
79006;BME280;69202;45.498;-73.582;2024-01-15T09:01:05;100914.69;;;18.26;28.11
79006;BME280;69202;45.498;-73.582;2024-01-15T09:03:32;100911.00;;;18.21;28.11
79006;BME280;69202;45.498;-73.582;2024-01-15T09:05:59;100911.34;;;18.24;27.92
79006;BME280;69202;45.498;-73.582;2024-01-15T09:08:25;100914.81;;;18.20;28.21
79006;BME280;69202;45.498;-73.582;2024-01-15T09:10:52;100929.78;;;18.29;28.01
79006;BME280;69202;45.498;-73.582;2024-01-15T09:13:18;100923.78;;;18.32;28.04
79006;BME280;69202;45.498;-73.582;2024-01-15T09:15:44;100923.78;;;18.32;28.11
79006;BME280;69202;45.498;-73.582;2024-01-15T09:18:10;100935.31;;;18.34;28.05
79006;BME280;69202;45.498;-73.582;2024-01-15T09:20:36;100923.97;;;18.25;28.15
79006;BME280;69202;45.498;-73.582;2024-01-15T09:23:04;100933.66;;;18.33;27.86
79006;BME280;69202;45.498;-73.582;2024-01-15T09:25:30;100934.59;;;18.38;28.12
79006;BME280;69202;45.498;-73.582;2024-01-15T09:27:56;100923.66;;;18.38;28.03
79006;BME280;69202;45.498;-73.582;2024-01-15T09:30:22;100920.09;;;18.38;27.97
79006;BME280;69202;45.498;-73.582;2024-01-15T09:32:48;100926.47;;;18.43;28.04
79006;BME280;69202;45.498;-73.582;2024-01-15T09:35:14;100926.00;;;18.46;27.68
79006;BME280;69202;45.498;-73.582;2024-01-15T09:37:41;100921.09;;;18.49;27.77
79006;BME280;69202;45.498;-73.582;2024-01-15T09:40:13;100934.53;;;18.50;27.83
79006;BME280;69202;45.498;-73.582;2024-01-15T09:42:41;100937.53;;;18.49;27.78
79006;BME280;69202;45.498;-73.582;2024-01-15T09:45:08;100941.69;;;18.51;27.81
79006;BME280;69202;45.498;-73.582;2024-01-15T09:47:36;100937.03;;;18.52;27.75
79006;BME280;69202;45.498;-73.582;2024-01-15T09:50:03;100927.72;;;18.53;27.65
79006;BME280;69202;45.498;-73.582;2024-01-15T09:52:30;100940.34;;;18.54;27.42
79006;BME280;69202;45.498;-73.582;2024-01-15T09:54:58;100933.97;;;18.48;27.53
79006;BME280;69202;45.498;-73.582;2024-01-15T09:57:27;100944.16;;;18.53;27.47
79006;BME280;69202;45.498;-73.582;2024-01-15T09:59:53;100950.22;;;18.55;27.37
79006;BME280;69202;45.498;-73.582;2024-01-15T10:02:21;100958.44;;;18.55;27.51
79006;BME280;69202;45.498;-73.582;2024-01-15T10:04:47;100963.91;;;18.55;27.50
79006;BME280;69202;45.498;-73.582;2024-01-15T10:07:15;100961.44;;;18.53;27.15
79006;BME280;69202;45.498;-73.582;2024-01-15T10:09:45;100950.72;;;18.52;27.46
79006;BME280;69202;45.498;-73.582;2024-01-15T10:12:12;100956.44;;;18.50;27.47
79006;BME280;69202;45.498;-73.582;2024-01-15T10:14:38;100958.34;;;18.50;27.38
79006;BME280;69202;45.498;-73.582;2024-01-15T10:17:16;100968.38;;;18.44;27.41
79006;BME280;69202;45.498;-73.582;2024-01-15T10:19:44;100960.66;;;18.41;27.37
79006;BME280;69202;45.498;-73.582;2024-01-15T10:22:10;100977.66;;;18.43;27.34
79006;BME280;69202;45.498;-73.582;2024-01-15T10:24:37;100982.81;;;18.39;27.50
79006;BME280;69202;45.498;-73.582;2024-01-15T10:27:11;100987.94;;;18.36;27.11
79006;BME280;69202;45.498;-73.582;2024-01-15T10:29:37;100999.16;;;18.34;27.41
79006;BME280;69202;45.498;-73.582;2024-01-15T10:32:06;100988.41;;;18.33;27.41
79006;BME280;69202;45.498;-73.582;2024-01-15T10:34:37;100986.19;;;18.30;27.48
79006;BME280;69202;45.498;-73.582;2024-01-15T10:37:04;100973.00;;;18.27;27.68
79006;BME280;69202;45.498;-73.582;2024-01-15T10:39:30;100983.94;;;18.27;27.66
79006;BME280;69202;45.498;-73.582;2024-01-15T10:41:56;100978.34;;;18.22;27.71
79006;BME280;69202;45.498;-73.582;2024-01-15T10:44:22;100978.34;;;18.22;27.72
79006;BME280;69202;45.498;-73.582;2024-01-15T10:46:48;100982.66;;;18.17;27.64
79006;BME280;69202;45.498;-73.582;2024-01-15T10:49:15;100986.81;;;18.20;27.88
79006;BME280;69202;45.498;-73.582;2024-01-15T10:51:42;100993.94;;;18.21;27.79
79006;BME280;69202;45.498;-73.582;2024-01-15T10:54:09;100993.09;;;18.21;27.67
79006;BME280;69202;45.498;-73.582;2024-01-15T10:56:39;100993.94;;;18.21;27.67
79006;BME280;69202;45.498;-73.582;2024-01-15T10:59:06;101003.81;;;18.22;27.88
79006;BME280;69202;45.498;-73.582;2024-01-15T11:01:33;101004.63;;;18.23;27.82
79006;BME280;69202;45.498;-73.582;2024-01-15T11:04:00;101000.50;;;18.20;27.85
79006;BME280;69202;45.498;-73.582;2024-01-15T11:06:28;101008.81;;;18.25;27.68
79006;BME280;69202;45.498;-73.582;2024-01-15T11:08:55;101009.06;;;18.24;27.83
79006;BME280;69202;45.498;-73.582;2024-01-15T11:11:21;101014.03;;;18.27;27.67
79006;BME280;69202;45.498;-73.582;2024-01-15T11:13:50;101029.16;;;18.29;27.77
79006;BME280;69202;45.498;-73.582;2024-01-15T11:16:18;101000.50;;;18.20;27.83
79006;BME280;69202;45.498;-73.582;2024-01-15T11:19:02;101014.72;;;18.34;27.69
79006;BME280;69202;45.498;-73.582;2024-01-15T11:21:29;101022.72;;;18.35;27.67
79006;BME280;69202;45.498;-73.582;2024-01-15T11:23:59;101034.25;;;18.37;27.70
79006;BME280;69202;45.498;-73.582;2024-01-15T11:29:08;101026.38;;;18.41;27.60
79006;BME280;69202;45.498;-73.582;2024-01-15T11:34:08;101030.06;;;18.46;27.54
79006;BME280;69202;45.498;-73.582;2024-01-15T11:42:04;101032.66;;;18.41;27.32
79006;BME280;69202;45.498;-73.582;2024-01-15T11:44:30;101050.97;;;18.53;27.42
79006;BME280;69202;45.498;-73.582;2024-01-15T11:47:05;101049.06;;;18.53;27.33
79006;BME280;69202;45.498;-73.582;2024-01-15T11:51:58;101056.09;;;18.49;27.26
79006;BME280;69202;45.498;-73.582;2024-01-15T11:54:26;101074.19;;;18.50;27.29
79006;BME280;69202;45.498;-73.582;2024-01-15T11:56:56;101065.16;;;18.50;27.12
79006;BME280;69202;45.498;-73.582;2024-01-15T11:59:23;101059.09;;;18.48;27.15
79006;BME280;69202;45.498;-73.582;2024-01-15T12:01:49;101065.97;;;18.50;27.59
79006;BME280;69202;45.498;-73.582;2024-01-15T12:04:15;101060.84;;;18.54;27.20
79006;BME280;69202;45.498;-73.582;2024-01-15T12:06:43;101063.81;;;18.52;26.99
79006;BME280;69202;45.498;-73.582;2024-01-15T12:09:08;101059.44;;;18.51;27.00
79006;BME280;69202;45.498;-73.582;2024-01-15T12:11:36;101058.59;;;18.51;27.19
79006;BME280;69202;45.498;-73.582;2024-01-15T12:14:04;101059.69;;;18.50;27.04
79006;BME280;69202;45.498;-73.582;2024-01-15T12:16:30;101059.09;;;18.48;27.05
79006;BME280;69202;45.498;-73.582;2024-01-15T12:18:56;101065.06;;;18.44;27.09
79006;BME280;69202;45.498;-73.582;2024-01-15T12:21:22;101067.19;;;18.42;27.03
79006;BME280;69202;45.498;-73.582;2024-01-15T12:23:49;101066.03;;;18.38;27.27
79006;BME280;69202;45.498;-73.582;2024-01-15T12:26:15;101071.50;;;18.38;27.26
79006;BME280;69202;45.498;-73.582;2024-01-15T12:28:40;101069.25;;;18.35;27.25
79006;BME280;69202;45.498;-73.582;2024-01-15T12:31:07;101074.38;;;18.32;27.23
79006;BME280;69202;45.498;-73.582;2024-01-15T12:33:33;101081.16;;;18.29;27.40
79006;BME280;69202;45.498;-73.582;2024-01-15T12:35:59;101077.84;;;18.27;27.28
79006;BME280;69202;45.498;-73.582;2024-01-15T12:38:25;101075.34;;;18.26;27.62
79006;BME280;69202;45.498;-73.582;2024-01-15T12:40:51;101083.81;;;18.24;27.63